sensor_id;sensor_type;location;lat;lon;timestamp;P1;durP1;ratioP1;P2;durP2;ratioP2
75059;SDS011;63640;59.264;18.116;2023-01-29T00:02:00;17.65;;;2.50;;
75059;SDS011;63640;59.264;18.116;2023-01-29T00:04:27;7.75;;;2.08;;
75059;SDS011;63640;59.264;18.116;2023-01-29T00:06:53;10.82;;;2.38;;
75059;SDS011;63640;59.264;18.116;2023-01-29T00:09:18;14.35;;;2.55;;
75059;SDS011;63640;59.264;18.116;2023-01-29T00:11:44;5.90;;;1.85;;
75059;SDS011;63640;59.264;18.116;2023-01-29T00:14:09;8.35;;;1.90;;
75059;SDS011;63640;59.264;18.116;2023-01-29T00:16:35;7.10;;;2.25;;
75059;SDS011;63640;59.264;18.116;2023-01-29T00:19:01;7.80;;;1.83;;
75059;SDS011;63640;59.264;18.116;2023-01-29T00:21:27;8.73;;;1.92;;
75059;SDS011;63640;59.264;18.116;2023-01-29T00:23:55;10.05;;;1.92;;
75059;SDS011;63640;59.264;18.116;2023-01-29T00:26:21;11.98;;;2.30;;
75059;SDS011;63640;59.264;18.116;2023-01-29T00:28:46;8.43;;;2.30;;
75059;SDS011;63640;59.264;18.116;2023-01-29T00:31:13;11.63;;;2.17;;
75059;SDS011;63640;59.264;18.116;2023-01-29T00:33:41;6.22;;;1.63;;
75059;SDS011;63640;59.264;18.116;2023-01-29T00:36:08;7.70;;;2.05;;
75059;SDS011;63640;59.264;18.116;2023-01-29T00:38:35;9.40;;;2.33;;
75059;SDS011;63640;59.264;18.116;2023-01-29T00:41:09;10.68;;;2.05;;
75059;SDS011;63640;59.264;18.116;2023-01-29T00:43:55;8.02;;;1.92;;
75059;SDS011;63640;59.264;18.116;2023-01-29T00:46:39;7.32;;;1.65;;
75059;SDS011;63640;59.264;18.116;2023-01-29T00:49:05;9.40;;;2.22;;
75059;SDS011;63640;59.264;18.116;2023-01-29T00:51:31;7.32;;;1.88;;
75059;SDS011;63640;59.264;18.116;2023-01-29T00:53:57;9.27;;;1.73;;
75059;SDS011;63640;59.264;18.116;2023-01-29T00:56:27;6.70;;;1.80;;
75059;SDS011;63640;59.264;18.116;2023-01-29T00:58:53;7.00;;;1.40;;
75059;SDS011;63640;59.264;18.116;2023-01-29T01:01:20;10.90;;;2.00;;
75059;SDS011;63640;59.264;18.116;2023-01-29T01:04:06;9.70;;;2.42;;
75059;SDS011;63640;59.264;18.116;2023-01-29T01:06:31;5.47;;;1.80;;
75059;SDS011;63640;59.264;18.116;2023-01-29T01:08:57;9.00;;;1.88;;
75059;SDS011;63640;59.264;18.116;2023-01-29T01:11:52;8.45;;;2.22;;
75059;SDS011;63640;59.264;18.116;2023-01-29T01:14:18;10.73;;;2.17;;
75059;SDS011;63640;59.264;18.116;2023-01-29T01:16:44;8.05;;;1.92;;
75059;SDS011;63640;59.264;18.116;2023-01-29T01:19:10;9.15;;;1.95;;
75059;SDS011;63640;59.264;18.116;2023-01-29T01:21:37;8.88;;;2.00;;
75059;SDS011;63640;59.264;18.116;2023-01-29T01:24:02;5.57;;;1.73;;
75059;SDS011;63640;59.264;18.116;2023-01-29T01:26:30;6.03;;;1.85;;
75059;SDS011;63640;59.264;18.116;2023-01-29T01:28:56;8.57;;;1.70;;
75059;SDS011;63640;59.264;18.116;2023-01-29T01:31:22;6.20;;;1.60;;
75059;SDS011;63640;59.264;18.116;2023-01-29T01:33:48;6.28;;;1.60;;
75059;SDS011;63640;59.264;18.116;2023-01-29T01:36:15;8.23;;;1.73;;
75059;SDS011;63640;59.264;18.116;2023-01-29T01:38:41;5.20;;;1.60;;
75059;SDS011;63640;59.264;18.116;2023-01-29T01:41:13;9.57;;;2.00;;
75059;SDS011;63640;59.264;18.116;2023-01-29T01:46:14;8.82;;;1.98;;
75059;SDS011;63640;59.264;18.116;2023-01-29T01:48:40;9.18;;;1.90;;
75059;SDS011;63640;59.264;18.116;2023-01-29T01:51:06;8.45;;;2.03;;
75059;SDS011;63640;59.264;18.116;2023-01-29T01:53:36;9.65;;;1.95;;
75059;SDS011;63640;59.264;18.116;2023-01-29T01:56:05;6.95;;;1.92;;
75059;SDS011;63640;59.264;18.116;2023-01-29T01:58:33;11.98;;;2.42;;
75059;SDS011;63640;59.264;18.116;2023-01-29T02:01:02;9.38;;;1.73;;
75059;SDS011;63640;59.264;18.116;2023-01-29T02:03:29;9.90;;;1.98;;
75059;SDS011;63640;59.264;18.116;2023-01-29T02:06:14;8.77;;;2.17;;
75059;SDS011;63640;59.264;18.116;2023-01-29T02:08:59;9.00;;;2.00;;
75059;SDS011;63640;59.264;18.116;2023-01-29T02:11:46;14.60;;;2.65;;
75059;SDS011;63640;59.264;18.116;2023-01-29T02:14:11;7.55;;;1.77;;
75059;SDS011;63640;59.264;18.116;2023-01-29T02:16:37;9.05;;;2.40;;
75059;SDS011;63640;59.264;18.116;2023-01-29T02:19:04;11.80;;;3.00;;
75059;SDS011;63640;59.264;18.116;2023-01-29T02:21:49;10.02;;;1.95;;
75059;SDS011;63640;59.264;18.116;2023-01-29T02:24:31;7.40;;;2.28;;
75059;SDS011;63640;59.264;18.116;2023-01-29T02:27:08;9.05;;;2.22;;
75059;SDS011;63640;59.264;18.116;2023-01-29T02:35:01;9.40;;;1.98;;
75059;SDS011;63640;59.264;18.116;2023-01-29T02:40:37;8.15;;;2.35;;
75059;SDS011;63640;59.264;18.116;2023-01-29T02:45:54;9.95;;;2.60;;
75059;SDS011;63640;59.264;18.116;2023-01-29T02:48:26;13.85;;;2.58;;
75059;SDS011;63640;59.264;18.116;2023-01-29T02:50:58;7.85;;;2.47;;
75059;SDS011;63640;59.264;18.116;2023-01-29T02:58:31;11.45;;;2.45;;
75059;SDS011;63640;59.264;18.116;2023-01-29T03:01:01;10.10;;;2.45;;
75059;SDS011;63640;59.264;18.116;2023-01-29T03:03:35;13.93;;;3.53;;
75059;SDS011;63640;59.264;18.116;2023-01-29T03:06:14;8.30;;;2.33;;
75059;SDS011;63640;59.264;18.116;2023-01-29T03:09:18;9.90;;;3.38;;
75059;SDS011;63640;59.264;18.116;2023-01-29T03:11:43;14.13;;;2.85;;
75059;SDS011;63640;59.264;18.116;2023-01-29T03:14:15;7.78;;;3.30;;
75059;SDS011;63640;59.264;18.116;2023-01-29T03:16:46;12.65;;;2.90;;
75059;SDS011;63640;59.264;18.116;2023-01-29T03:19:48;11.55;;;3.22;;
75059;SDS011;63640;59.264;18.116;2023-01-29T03:22:07;13.43;;;2.97;;
75059;SDS011;63640;59.264;18.116;2023-01-29T03:27:21;10.02;;;3.13;;
75059;SDS011;63640;59.264;18.116;2023-01-29T03:30:08;13.85;;;3.85;;
75059;SDS011;63640;59.264;18.116;2023-01-29T03:32:54;10.05;;;4.05;;
75059;SDS011;63640;59.264;18.116;2023-01-29T03:35:22;14.95;;;4.55;;
75059;SDS011;63640;59.264;18.116;2023-01-29T03:37:59;11.30;;;3.63;;
75059;SDS011;63640;59.264;18.116;2023-01-29T03:40:26;14.07;;;4.07;;
75059;SDS011;63640;59.264;18.116;2023-01-29T03:45:52;8.55;;;3.00;;
75059;SDS011;63640;59.264;18.116;2023-01-29T03:53:45;10.40;;;3.30;;
75059;SDS011;63640;59.264;18.116;2023-01-29T03:59:14;11.20;;;3.58;;
75059;SDS011;63640;59.264;18.116;2023-01-29T04:06:48;11.57;;;3.67;;
75059;SDS011;63640;59.264;18.116;2023-01-29T04:12:01;12.30;;;4.30;;
75059;SDS011;63640;59.264;18.116;2023-01-29T04:14:30;9.93;;;3.22;;
75059;SDS011;63640;59.264;18.116;2023-01-29T04:16:56;13.73;;;3.72;;
75059;SDS011;63640;59.264;18.116;2023-01-29T04:19:25;15.75;;;4.05;;
75059;SDS011;63640;59.264;18.116;2023-01-29T04:21:52;11.65;;;3.47;;
75059;SDS011;63640;59.264;18.116;2023-01-29T04:24:42;8.52;;;3.38;;
75059;SDS011;63640;59.264;18.116;2023-01-29T04:32:56;13.25;;;3.90;;
75059;SDS011;63640;59.264;18.116;2023-01-29T04:44:15;10.13;;;3.40;;
75059;SDS011;63640;59.264;18.116;2023-01-29T04:52:10;12.02;;;3.63;;
75059;SDS011;63640;59.264;18.116;2023-01-29T05:00:06;10.85;;;2.95;;
75059;SDS011;63640;59.264;18.116;2023-01-29T05:02:38;8.77;;;2.80;;
75059;SDS011;63640;59.264;18.116;2023-01-29T05:05:04;9.43;;;3.35;;
75059;SDS011;63640;59.264;18.116;2023-01-29T05:07:31;12.38;;;3.65;;
75059;SDS011;63640;59.264;18.116;2023-01-29T05:09:59;10.93;;;4.40;;
75059;SDS011;63640;59.264;18.116;2023-01-29T05:12:25;9.18;;;3.58;;
75059;SDS011;63640;59.264;18.116;2023-01-29T05:14:53;12.30;;;3.50;;
75059;SDS011;63640;59.264;18.116;2023-01-29T05:17:20;13.25;;;3.83;;
75059;SDS011;63640;59.264;18.116;2023-01-29T05:19:46;10.43;;;3.72;;
75059;SDS011;63640;59.264;18.116;2023-01-29T05:22:12;12.48;;;4.15;;
75059;SDS011;63640;59.264;18.116;2023-01-29T05:24:41;10.65;;;3.33;;
75059;SDS011;63640;59.264;18.116;2023-01-29T05:27:08;13.07;;;4.30;;
75059;SDS011;63640;59.264;18.116;2023-01-29T05:30:06;15.35;;;4.10;;
75059;SDS011;63640;59.264;18.116;2023-01-29T05:32:32;9.02;;;3.20;;
75059;SDS011;63640;59.264;18.116;2023-01-29T05:34:58;12.13;;;3.72;;
75059;SDS011;63640;59.264;18.116;2023-01-29T05:37:23;14.45;;;5.03;;
75059;SDS011;63640;59.264;18.116;2023-01-29T05:39:49;13.15;;;3.38;;
75059;SDS011;63640;59.264;18.116;2023-01-29T05:42:15;11.52;;;3.97;;
75059;SDS011;63640;59.264;18.116;2023-01-29T05:44:40;14.15;;;4.15;;
75059;SDS011;63640;59.264;18.116;2023-01-29T05:47:06;9.77;;;4.07;;
75059;SDS011;63640;59.264;18.116;2023-01-29T05:49:31;11.57;;;3.72;;
75059;SDS011;63640;59.264;18.116;2023-01-29T05:51:57;17.60;;;4.03;;
75059;SDS011;63640;59.264;18.116;2023-01-29T05:54:22;12.18;;;3.92;;
75059;SDS011;63640;59.264;18.116;2023-01-29T05:56:49;12.48;;;3.90;;
75059;SDS011;63640;59.264;18.116;2023-01-29T05:59:15;10.40;;;4.15;;
75059;SDS011;63640;59.264;18.116;2023-01-29T06:01:41;13.27;;;3.58;;
75059;SDS011;63640;59.264;18.116;2023-01-29T06:04:07;12.05;;;3.92;;
75059;SDS011;63640;59.264;18.116;2023-01-29T06:06:32;15.30;;;4.13;;
75059;SDS011;63640;59.264;18.116;2023-01-29T06:08:58;12.45;;;3.88;;
75059;SDS011;63640;59.264;18.116;2023-01-29T06:11:23;9.57;;;3.95;;
75059;SDS011;63640;59.264;18.116;2023-01-29T06:13:49;11.75;;;4.47;;
75059;SDS011;63640;59.264;18.116;2023-01-29T06:16:15;11.13;;;3.75;;
75059;SDS011;63640;59.264;18.116;2023-01-29T06:18:40;10.50;;;4.45;;
75059;SDS011;63640;59.264;18.116;2023-01-29T06:21:07;12.40;;;4.57;;
75059;SDS011;63640;59.264;18.116;2023-01-29T06:23:35;12.10;;;3.85;;
75059;SDS011;63640;59.264;18.116;2023-01-29T06:26:08;15.02;;;4.22;;
75059;SDS011;63640;59.264;18.116;2023-01-29T06:28:35;16.77;;;4.72;;
75059;SDS011;63640;59.264;18.116;2023-01-29T06:31:01;11.43;;;4.65;;
75059;SDS011;63640;59.264;18.116;2023-01-29T06:33:27;11.27;;;4.15;;
75059;SDS011;63640;59.264;18.116;2023-01-29T06:36:00;12.48;;;4.15;;
75059;SDS011;63640;59.264;18.116;2023-01-29T06:38:27;10.98;;;4.35;;
75059;SDS011;63640;59.264;18.116;2023-01-29T06:40:52;13.30;;;3.92;;
75059;SDS011;63640;59.264;18.116;2023-01-29T06:43:18;9.77;;;3.67;;
75059;SDS011;63640;59.264;18.116;2023-01-29T06:45:48;12.88;;;3.63;;
75059;SDS011;63640;59.264;18.116;2023-01-29T06:48:21;12.88;;;4.97;;
75059;SDS011;63640;59.264;18.116;2023-01-29T06:50:48;12.43;;;4.00;;
75059;SDS011;63640;59.264;18.116;2023-01-29T06:53:14;10.10;;;3.33;;
75059;SDS011;63640;59.264;18.116;2023-01-29T06:55:40;11.88;;;4.75;;
75059;SDS011;63640;59.264;18.116;2023-01-29T06:58:10;12.50;;;4.00;;
75059;SDS011;63640;59.264;18.116;2023-01-29T07:00:36;9.50;;;4.68;;
75059;SDS011;63640;59.264;18.116;2023-01-29T07:03:03;9.77;;;3.75;;
75059;SDS011;63640;59.264;18.116;2023-01-29T07:05:29;12.95;;;3.97;;
75059;SDS011;63640;59.264;18.116;2023-01-29T07:07:55;13.23;;;4.30;;
75059;SDS011;63640;59.264;18.116;2023-01-29T07:10:21;15.13;;;4.25;;
75059;SDS011;63640;59.264;18.116;2023-01-29T07:12:46;12.35;;;4.30;;
75059;SDS011;63640;59.264;18.116;2023-01-29T07:15:12;9.27;;;3.97;;
75059;SDS011;63640;59.264;18.116;2023-01-29T07:17:38;13.00;;;3.90;;
75059;SDS011;63640;59.264;18.116;2023-01-29T07:20:03;10.10;;;4.13;;
75059;SDS011;63640;59.264;18.116;2023-01-29T07:22:30;15.13;;;4.68;;
75059;SDS011;63640;59.264;18.116;2023-01-29T07:24:56;14.88;;;4.97;;
75059;SDS011;63640;59.264;18.116;2023-01-29T07:27:21;9.90;;;4.45;;
75059;SDS011;63640;59.264;18.116;2023-01-29T07:29:47;13.48;;;4.53;;
75059;SDS011;63640;59.264;18.116;2023-01-29T07:32:12;10.18;;;4.57;;
75059;SDS011;63640;59.264;18.116;2023-01-29T07:34:38;18.38;;;5.35;;
75059;SDS011;63640;59.264;18.116;2023-01-29T07:37:03;10.82;;;4.22;;
75059;SDS011;63640;59.264;18.116;2023-01-29T07:39:30;9.23;;;3.60;;
75059;SDS011;63640;59.264;18.116;2023-01-29T07:41:56;13.82;;;4.78;;
75059;SDS011;63640;59.264;18.116;2023-01-29T07:44:22;12.25;;;4.38;;
75059;SDS011;63640;59.264;18.116;2023-01-29T07:46:47;11.35;;;3.50;;
75059;SDS011;63640;59.264;18.116;2023-01-29T07:49:13;17.60;;;4.30;;
75059;SDS011;63640;59.264;18.116;2023-01-29T07:51:39;12.65;;;4.30;;
75059;SDS011;63640;59.264;18.116;2023-01-29T07:54:04;15.55;;;3.72;;
75059;SDS011;63640;59.264;18.116;2023-01-29T07:56:30;10.00;;;3.95;;
75059;SDS011;63640;59.264;18.116;2023-01-29T07:58:55;14.55;;;4.30;;
75059;SDS011;63640;59.264;18.116;2023-01-29T08:01:21;11.77;;;3.25;;
75059;SDS011;63640;59.264;18.116;2023-01-29T08:03:46;15.70;;;4.18;;
75059;SDS011;63640;59.264;18.116;2023-01-29T08:06:12;8.88;;;3.38;;
75059;SDS011;63640;59.264;18.116;2023-01-29T08:08:37;11.98;;;3.45;;
75059;SDS011;63640;59.264;18.116;2023-01-29T08:11:03;10.80;;;3.75;;
75059;SDS011;63640;59.264;18.116;2023-01-29T08:13:29;10.55;;;3.35;;
75059;SDS011;63640;59.264;18.116;2023-01-29T08:16:01;14.95;;;3.17;;
75059;SDS011;63640;59.264;18.116;2023-01-29T08:18:28;16.80;;;3.72;;
75059;SDS011;63640;59.264;18.116;2023-01-29T08:20:59;10.48;;;3.38;;
75059;SDS011;63640;59.264;18.116;2023-01-29T08:23:25;12.68;;;4.22;;
75059;SDS011;63640;59.264;18.116;2023-01-29T08:25:50;12.60;;;3.65;;
75059;SDS011;63640;59.264;18.116;2023-01-29T08:28:16;9.82;;;2.53;;
75059;SDS011;63640;59.264;18.116;2023-01-29T08:30:41;10.05;;;2.47;;
75059;SDS011;63640;59.264;18.116;2023-01-29T08:33:08;11.57;;;3.28;;
75059;SDS011;63640;59.264;18.116;2023-01-29T08:35:33;8.65;;;3.00;;
75059;SDS011;63640;59.264;18.116;2023-01-29T08:38:00;9.93;;;3.20;;
75059;SDS011;63640;59.264;18.116;2023-01-29T08:40:28;10.05;;;2.97;;
75059;SDS011;63640;59.264;18.116;2023-01-29T08:42:58;11.00;;;2.90;;
75059;SDS011;63640;59.264;18.116;2023-01-29T08:45:24;9.43;;;3.33;;
75059;SDS011;63640;59.264;18.116;2023-01-29T08:47:49;9.02;;;3.25;;
75059;SDS011;63640;59.264;18.116;2023-01-29T08:50:16;8.80;;;2.60;;
75059;SDS011;63640;59.264;18.116;2023-01-29T08:52:42;13.65;;;2.85;;
75059;SDS011;63640;59.264;18.116;2023-01-29T08:55:08;8.60;;;2.83;;
75059;SDS011;63640;59.264;18.116;2023-01-29T08:57:35;9.52;;;2.90;;
75059;SDS011;63640;59.264;18.116;2023-01-29T09:00:01;7.97;;;2.42;;
75059;SDS011;63640;59.264;18.116;2023-01-29T09:02:27;10.10;;;3.03;;
75059;SDS011;63640;59.264;18.116;2023-01-29T09:04:53;9.68;;;2.20;;
75059;SDS011;63640;59.264;18.116;2023-01-29T09:07:18;7.25;;;2.15;;
75059;SDS011;63640;59.264;18.116;2023-01-29T09:09:45;7.95;;;2.22;;
75059;SDS011;63640;59.264;18.116;2023-01-29T09:12:11;8.80;;;2.60;;
75059;SDS011;63640;59.264;18.116;2023-01-29T09:14:37;8.35;;;1.80;;
75059;SDS011;63640;59.264;18.116;2023-01-29T09:17:02;11.00;;;2.83;;
75059;SDS011;63640;59.264;18.116;2023-01-29T09:19:28;12.05;;;2.35;;
75059;SDS011;63640;59.264;18.116;2023-01-29T09:21:53;9.80;;;2.42;;
75059;SDS011;63640;59.264;18.116;2023-01-29T09:24:19;9.70;;;2.40;;
75059;SDS011;63640;59.264;18.116;2023-01-29T09:26:44;10.35;;;2.40;;
75059;SDS011;63640;59.264;18.116;2023-01-29T09:29:10;6.30;;;1.75;;
75059;SDS011;63640;59.264;18.116;2023-01-29T09:31:35;6.57;;;1.95;;
75059;SDS011;63640;59.264;18.116;2023-01-29T09:34:01;10.25;;;2.90;;
75059;SDS011;63640;59.264;18.116;2023-01-29T09:36:26;14.70;;;3.20;;
75059;SDS011;63640;59.264;18.116;2023-01-29T09:38:52;8.05;;;2.10;;
75059;SDS011;63640;59.264;18.116;2023-01-29T09:46:38;12.35;;;2.22;;
75059;SDS011;63640;59.264;18.116;2023-01-29T09:49:06;8.70;;;2.65;;
75059;SDS011;63640;59.264;18.116;2023-01-29T09:52:06;9.35;;;2.20;;
75059;SDS011;63640;59.264;18.116;2023-01-29T09:54:47;9.27;;;2.47;;
75059;SDS011;63640;59.264;18.116;2023-01-29T09:57:16;7.57;;;2.72;;
75059;SDS011;63640;59.264;18.116;2023-01-29T09:59:45;10.60;;;2.25;;
75059;SDS011;63640;59.264;18.116;2023-01-29T10:05:24;10.93;;;2.53;;
75059;SDS011;63640;59.264;18.116;2023-01-29T10:08:19;10.32;;;1.92;;
75059;SDS011;63640;59.264;18.116;2023-01-29T10:14:13;8.25;;;1.77;;
75059;SDS011;63640;59.264;18.116;2023-01-29T10:16:49;8.90;;;1.70;;
75059;SDS011;63640;59.264;18.116;2023-01-29T10:19:44;7.70;;;2.42;;
75059;SDS011;63640;59.264;18.116;2023-01-29T10:22:22;7.15;;;2.30;;
75059;SDS011;63640;59.264;18.116;2023-01-29T10:24:57;7.40;;;2.08;;
75059;SDS011;63640;59.264;18.116;2023-01-29T10:27:26;8.73;;;2.15;;
75059;SDS011;63640;59.264;18.116;2023-01-29T10:32:22;7.53;;;1.33;;
75059;SDS011;63640;59.264;18.116;2023-01-29T10:37:49;10.35;;;2.03;;
75059;SDS011;63640;59.264;18.116;2023-01-29T10:40:26;6.35;;;2.17;;
75059;SDS011;63640;59.264;18.116;2023-01-29T10:45:30;8.43;;;1.98;;
75059;SDS011;63640;59.264;18.116;2023-01-29T10:50:54;10.43;;;2.72;;
75059;SDS011;63640;59.264;18.116;2023-01-29T10:53:32;9.07;;;2.25;;
75059;SDS011;63640;59.264;18.116;2023-01-29T10:58:50;6.80;;;1.95;;
75059;SDS011;63640;59.264;18.116;2023-01-29T11:01:19;6.72;;;2.08;;
75059;SDS011;63640;59.264;18.116;2023-01-29T11:03:45;13.98;;;2.33;;
75059;SDS011;63640;59.264;18.116;2023-01-29T11:06:21;8.38;;;2.20;;
75059;SDS011;63640;59.264;18.116;2023-01-29T11:11:45;11.00;;;1.90;;
75059;SDS011;63640;59.264;18.116;2023-01-29T11:14:14;14.80;;;2.17;;
75059;SDS011;63640;59.264;18.116;2023-01-29T11:16:44;12.18;;;1.88;;
75059;SDS011;63640;59.264;18.116;2023-01-29T11:19:11;8.15;;;1.92;;
75059;SDS011;63640;59.264;18.116;2023-01-29T11:21:59;12.32;;;2.00;;
75059;SDS011;63640;59.264;18.116;2023-01-29T11:24:25;9.63;;;2.30;;
75059;SDS011;63640;59.264;18.116;2023-01-29T11:26:51;10.10;;;2.42;;
75059;SDS011;63640;59.264;18.116;2023-01-29T11:31:54;8.32;;;2.33;;
75059;SDS011;63640;59.264;18.116;2023-01-29T11:34:21;13.50;;;3.05;;
75059;SDS011;63640;59.264;18.116;2023-01-29T11:36:56;16.17;;;3.65;;
75059;SDS011;63640;59.264;18.116;2023-01-29T11:39:23;9.75;;;3.47;;
75059;SDS011;63640;59.264;18.116;2023-01-29T11:44:39;12.93;;;2.97;;
75059;SDS011;63640;59.264;18.116;2023-01-29T11:47:23;11.35;;;2.60;;
75059;SDS011;63640;59.264;18.116;2023-01-29T11:49:51;11.18;;;2.75;;
75059;SDS011;63640;59.264;18.116;2023-01-29T11:52:19;9.93;;;2.58;;
75059;SDS011;63640;59.264;18.116;2023-01-29T11:55:32;12.40;;;2.58;;
75059;SDS011;63640;59.264;18.116;2023-01-29T11:57:41;11.13;;;3.13;;
75059;SDS011;63640;59.264;18.116;2023-01-29T12:00:24;10.52;;;2.90;;
75059;SDS011;63640;59.264;18.116;2023-01-29T12:05:24;8.27;;;2.03;;
75059;SDS011;63640;59.264;18.116;2023-01-29T12:07:51;11.43;;;2.33;;
75059;SDS011;63640;59.264;18.116;2023-01-29T12:15:37;8.90;;;2.20;;
75059;SDS011;63640;59.264;18.116;2023-01-29T12:21:00;12.45;;;2.38;;
75059;SDS011;63640;59.264;18.116;2023-01-29T12:23:35;8.85;;;1.80;;
75059;SDS011;63640;59.264;18.116;2023-01-29T12:31:34;7.55;;;1.77;;
75059;SDS011;63640;59.264;18.116;2023-01-29T12:34:11;9.80;;;1.80;;
75059;SDS011;63640;59.264;18.116;2023-01-29T12:36:45;12.15;;;2.08;;
75059;SDS011;63640;59.264;18.116;2023-01-29T12:39:17;12.27;;;2.22;;
75059;SDS011;63640;59.264;18.116;2023-01-29T12:41:49;10.65;;;2.00;;
75059;SDS011;63640;59.264;18.116;2023-01-29T12:44:24;10.40;;;2.58;;
75059;SDS011;63640;59.264;18.116;2023-01-29T12:46:56;9.85;;;2.22;;
75059;SDS011;63640;59.264;18.116;2023-01-29T12:49:24;11.90;;;2.38;;
75059;SDS011;63640;59.264;18.116;2023-01-29T12:51:54;10.55;;;2.58;;
75059;SDS011;63640;59.264;18.116;2023-01-29T12:54:34;8.82;;;2.10;;
75059;SDS011;63640;59.264;18.116;2023-01-29T12:57:03;13.65;;;2.53;;
75059;SDS011;63640;59.264;18.116;2023-01-29T12:59:38;11.68;;;2.15;;
75059;SDS011;63640;59.264;18.116;2023-01-29T13:04:45;11.43;;;1.38;;
75059;SDS011;63640;59.264;18.116;2023-01-29T13:07:19;7.20;;;1.55;;
75059;SDS011;63640;59.264;18.116;2023-01-29T13:09:49;10.05;;;1.80;;
75059;SDS011;63640;59.264;18.116;2023-01-29T13:12:18;9.18;;;1.83;;
75059;SDS011;63640;59.264;18.116;2023-01-29T13:20:03;9.40;;;1.35;;
75059;SDS011;63640;59.264;18.116;2023-01-29T13:22:35;11.95;;;1.80;;
75059;SDS011;63640;59.264;18.116;2023-01-29T13:25:02;12.55;;;1.77;;
75059;SDS011;63640;59.264;18.116;2023-01-29T13:27:28;10.30;;;2.00;;
75059;SDS011;63640;59.264;18.116;2023-01-29T13:29:55;10.70;;;1.88;;
75059;SDS011;63640;59.264;18.116;2023-01-29T13:32:23;9.85;;;1.73;;
75059;SDS011;63640;59.264;18.116;2023-01-29T13:34:51;13.27;;;2.47;;
75059;SDS011;63640;59.264;18.116;2023-01-29T13:37:26;12.98;;;2.10;;
75059;SDS011;63640;59.264;18.116;2023-01-29T13:39:55;10.93;;;2.50;;
75059;SDS011;63640;59.264;18.116;2023-01-29T13:42:23;19.00;;;3.78;;
75059;SDS011;63640;59.264;18.116;2023-01-29T13:44:56;15.52;;;3.70;;
75059;SDS011;63640;59.264;18.116;2023-01-29T13:47:26;13.02;;;3.55;;
75059;SDS011;63640;59.264;18.116;2023-01-29T13:49:58;15.48;;;3.60;;
75059;SDS011;63640;59.264;18.116;2023-01-29T13:52:30;14.02;;;3.53;;
75059;SDS011;63640;59.264;18.116;2023-01-29T14:00:04;8.80;;;2.85;;
75059;SDS011;63640;59.264;18.116;2023-01-29T14:02:30;13.82;;;3.20;;
75059;SDS011;63640;59.264;18.116;2023-01-29T14:07:56;10.25;;;3.17;;
75059;SDS011;63640;59.264;18.116;2023-01-29T14:10:30;15.05;;;2.75;;
75059;SDS011;63640;59.264;18.116;2023-01-29T14:15:26;7.97;;;1.85;;
75059;SDS011;63640;59.264;18.116;2023-01-29T14:17:57;11.40;;;2.25;;
75059;SDS011;63640;59.264;18.116;2023-01-29T14:20:31;9.15;;;1.83;;
75059;SDS011;63640;59.264;18.116;2023-01-29T14:22:59;7.85;;;2.13;;
75059;SDS011;63640;59.264;18.116;2023-01-29T14:25:36;10.75;;;2.75;;
75059;SDS011;63640;59.264;18.116;2023-01-29T14:28:03;12.65;;;1.60;;
75059;SDS011;63640;59.264;18.116;2023-01-29T14:30:30;9.45;;;1.52;;
75059;SDS011;63640;59.264;18.116;2023-01-29T14:32:56;8.55;;;2.03;;
75059;SDS011;63640;59.264;18.116;2023-01-29T14:35:23;10.85;;;2.08;;
75059;SDS011;63640;59.264;18.116;2023-01-29T14:37:51;7.45;;;1.40;;
75059;SDS011;63640;59.264;18.116;2023-01-29T14:47:52;10.07;;;1.70;;
75059;SDS011;63640;59.264;18.116;2023-01-29T14:58:38;11.77;;;1.95;;
75059;SDS011;63640;59.264;18.116;2023-01-29T15:01:13;10.88;;;2.30;;
75059;SDS011;63640;59.264;18.116;2023-01-29T15:03:43;5.43;;;1.23;;
75059;SDS011;63640;59.264;18.116;2023-01-29T15:06:22;10.27;;;2.20;;
75059;SDS011;63640;59.264;18.116;2023-01-29T15:15:14;8.02;;;2.05;;
75059;SDS011;63640;59.264;18.116;2023-01-29T15:20:36;9.68;;;2.35;;
75059;SDS011;63640;59.264;18.116;2023-01-29T15:26:00;7.15;;;2.22;;
75059;SDS011;63640;59.264;18.116;2023-01-29T15:28:28;6.82;;;1.60;;
75059;SDS011;63640;59.264;18.116;2023-01-29T15:30:58;13.75;;;2.50;;
75059;SDS011;63640;59.264;18.116;2023-01-29T15:33:25;13.13;;;2.35;;
75059;SDS011;63640;59.264;18.116;2023-01-29T15:35:57;14.23;;;1.73;;
75059;SDS011;63640;59.264;18.116;2023-01-29T15:38:24;9.70;;;1.80;;
75059;SDS011;63640;59.264;18.116;2023-01-29T15:40:58;9.88;;;1.67;;
75059;SDS011;63640;59.264;18.116;2023-01-29T15:43:34;11.10;;;1.65;;
75059;SDS011;63640;59.264;18.116;2023-01-29T15:46:05;10.85;;;1.58;;
75059;SDS011;63640;59.264;18.116;2023-01-29T15:48:36;6.15;;;1.58;;
75059;SDS011;63640;59.264;18.116;2023-01-29T15:51:09;10.40;;;1.70;;
75059;SDS011;63640;59.264;18.116;2023-01-29T15:53:42;12.50;;;2.03;;
75059;SDS011;63640;59.264;18.116;2023-01-29T15:56:14;9.32;;;1.63;;
75059;SDS011;63640;59.264;18.116;2023-01-29T15:58:41;11.23;;;1.88;;
75059;SDS011;63640;59.264;18.116;2023-01-29T16:01:07;5.18;;;1.45;;
75059;SDS011;63640;59.264;18.116;2023-01-29T16:03:33;8.77;;;1.70;;
75059;SDS011;63640;59.264;18.116;2023-01-29T16:05:59;7.80;;;1.50;;
75059;SDS011;63640;59.264;18.116;2023-01-29T16:08:25;13.85;;;1.90;;
75059;SDS011;63640;59.264;18.116;2023-01-29T16:10:55;8.55;;;1.40;;
75059;SDS011;63640;59.264;18.116;2023-01-29T16:13:23;10.27;;;2.03;;
75059;SDS011;63640;59.264;18.116;2023-01-29T16:15:54;9.68;;;2.35;;
75059;SDS011;63640;59.264;18.116;2023-01-29T16:18:24;9.93;;;3.05;;
75059;SDS011;63640;59.264;18.116;2023-01-29T16:20:55;3.60;;;1.20;;
75059;SDS011;63640;59.264;18.116;2023-01-29T16:23:28;8.00;;;1.73;;
75059;SDS011;63640;59.264;18.116;2023-01-29T16:26:00;8.52;;;1.77;;
75059;SDS011;63640;59.264;18.116;2023-01-29T16:28:29;7.72;;;1.40;;
75059;SDS011;63640;59.264;18.116;2023-01-29T16:30:58;7.03;;;1.58;;
75059;SDS011;63640;59.264;18.116;2023-01-29T16:33:29;7.57;;;1.30;;
75059;SDS011;63640;59.264;18.116;2023-01-29T16:35:58;7.55;;;2.08;;
75059;SDS011;63640;59.264;18.116;2023-01-29T16:38:25;10.60;;;2.15;;
75059;SDS011;63640;59.264;18.116;2023-01-29T16:46:17;7.60;;;1.42;;
75059;SDS011;63640;59.264;18.116;2023-01-29T16:48:59;6.57;;;1.55;;
75059;SDS011;63640;59.264;18.116;2023-01-29T16:51:27;6.05;;;1.40;;
75059;SDS011;63640;59.264;18.116;2023-01-29T16:54:10;11.65;;;1.52;;
75059;SDS011;63640;59.264;18.116;2023-01-29T16:56:43;12.18;;;2.25;;
75059;SDS011;63640;59.264;18.116;2023-01-29T16:59:16;9.60;;;2.20;;
75059;SDS011;63640;59.264;18.116;2023-01-29T17:01:43;9.85;;;1.40;;
75059;SDS011;63640;59.264;18.116;2023-01-29T17:04:10;8.35;;;1.80;;
75059;SDS011;63640;59.264;18.116;2023-01-29T17:06:39;11.57;;;1.27;;
75059;SDS011;63640;59.264;18.116;2023-01-29T17:09:07;14.27;;;2.10;;
75059;SDS011;63640;59.264;18.116;2023-01-29T17:11:36;7.97;;;2.30;;
75059;SDS011;63640;59.264;18.116;2023-01-29T17:14:04;9.38;;;1.23;;
75059;SDS011;63640;59.264;18.116;2023-01-29T17:16:33;9.35;;;1.65;;
75059;SDS011;63640;59.264;18.116;2023-01-29T17:19:00;11.10;;;1.83;;
75059;SDS011;63640;59.264;18.116;2023-01-29T17:21:38;8.30;;;1.80;;
75059;SDS011;63640;59.264;18.116;2023-01-29T17:24:03;8.57;;;1.52;;
75059;SDS011;63640;59.264;18.116;2023-01-29T17:26:30;10.32;;;1.70;;
75059;SDS011;63640;59.264;18.116;2023-01-29T17:28:56;11.02;;;1.63;;
75059;SDS011;63640;59.264;18.116;2023-01-29T17:31:24;11.10;;;1.70;;